createdAt,value
2023-01-09T00:01:29.977Z,99575.06
2023-01-09T00:03:58.370Z,99569.03
2023-01-09T00:06:26.574Z,99563.38
2023-01-09T00:08:55.148Z,99565.00
2023-01-09T00:11:23.721Z,99563.41
2023-01-09T00:13:51.941Z,99560.84
2023-01-09T00:16:21.833Z,99561.16
2023-01-09T00:18:50.533Z,99563.31
2023-01-09T00:21:18.706Z,99565.66
2023-01-09T00:23:47.386Z,99555.66
2023-01-09T00:26:18.001Z,99558.97
2023-01-09T00:28:47.071Z,99552.34
2023-01-09T00:31:15.701Z,99547.00
2023-01-09T00:33:47.571Z,99558.75
2023-01-09T00:36:15.757Z,99536.78
2023-01-09T00:38:43.926Z,99541.16
2023-01-09T00:41:16.939Z,99538.28
2023-01-09T00:43:48.144Z,99533.28
2023-01-09T00:46:18.328Z,99525.75
2023-01-09T00:48:50.587Z,99540.97
2023-01-09T00:51:20.918Z,99538.22
2023-01-09T00:53:50.493Z,99528.59
2023-01-09T00:56:21.429Z,99532.84
2023-01-09T00:58:50.224Z,99530.03
2023-01-09T01:01:18.488Z,99523.22
2023-01-09T01:03:48.066Z,99515.72
2023-01-09T01:06:33.848Z,99515.09
2023-01-09T01:09:02.017Z,99508.84
2023-01-09T01:11:30.281Z,99512.66
2023-01-09T01:13:59.043Z,99514.03
2023-01-09T01:16:27.425Z,99519.22
2023-01-09T01:18:57.106Z,99507.25
2023-01-09T01:21:25.361Z,99521.97
2023-01-09T01:23:53.631Z,99520.84
2023-01-09T01:26:21.914Z,99521.28
2023-01-09T01:28:50.169Z,99517.53
2023-01-09T01:31:20.209Z,99505.31
2023-01-09T01:33:48.372Z,99507.72
2023-01-09T01:36:18.150Z,99505.03
2023-01-09T01:38:47.808Z,99501.44
2023-01-09T01:41:29.416Z,99500.53
2023-01-09T01:44:00.653Z,99506.53
2023-01-09T01:46:29.990Z,99505.22
2023-01-09T01:49:04.579Z,99496.44
2023-01-09T01:51:40.763Z,99491.69
2023-01-09T01:54:13.864Z,99488.31
2023-01-09T01:56:46.070Z,99480.50
2023-01-09T01:59:19.888Z,99480.69
2023-01-09T02:01:51.818Z,99484.69
2023-01-09T02:04:20.532Z,99476.78
2023-01-09T02:06:54.274Z,99470.03
2023-01-09T02:09:23.339Z,99473.72
2023-01-09T02:11:53.902Z,99469.56
2023-01-09T02:14:25.109Z,99464.94
2023-01-09T02:17:02.921Z,99458.66
2023-01-09T02:20:02.488Z,99464.84
2023-01-09T02:22:39.261Z,99457.84
2023-01-09T02:25:43.633Z,99460.19
2023-01-09T02:28:41.983Z,99453.44
2023-01-09T02:31:16.301Z,99449.28
2023-01-09T02:33:55.206Z,99460.28
2023-01-09T02:36:32.080Z,99452.91
2023-01-09T02:39:15.924Z,99453.59
2023-01-09T02:41:49.907Z,99449.09
2023-01-09T02:44:29.266Z,99449.50
2023-01-09T02:47:04.385Z,99437.03
2023-01-09T02:49:33.794Z,99437.66
2023-01-09T02:52:15.295Z,99450.53
2023-01-09T02:54:55.924Z,99446.13
2023-01-09T02:57:48.598Z,99448.13
2023-01-09T03:00:29.976Z,99449.34
2023-01-09T03:03:10.204Z,99446.66
2023-01-09T03:05:43.154Z,99438.34
2023-01-09T03:08:17.809Z,99440.25
2023-01-09T03:10:52.636Z,99433.72
2023-01-09T03:13:25.036Z,99427.47
2023-01-09T03:15:55.279Z,99425.66
2023-01-09T03:18:29.305Z,99428.72
2023-01-09T03:20:57.969Z,99420.94
2023-01-09T03:23:26.356Z,99421.13
2023-01-09T03:25:54.502Z,99416.78
2023-01-09T03:28:28.934Z,99406.19
2023-01-09T03:30:57.087Z,99410.75
2023-01-09T03:33:26.629Z,99405.94
2023-01-09T03:35:54.919Z,99398.56
2023-01-09T03:38:23.064Z,99398.41
2023-01-09T03:40:51.356Z,99404.25
2023-01-09T03:43:19.563Z,99394.19
2023-01-09T03:45:47.727Z,99390.28
2023-01-09T03:48:16.191Z,99392.38
2023-01-09T03:50:47.321Z,99389.09
2023-01-09T03:53:15.570Z,99397.91
2023-01-09T03:55:45.218Z,99394.69
2023-01-09T03:58:13.581Z,99386.75
2023-01-09T04:00:42.310Z,99388.59
2023-01-09T04:03:10.772Z,99388.00
2023-01-09T04:05:39.456Z,99385.53
2023-01-09T04:08:08.916Z,99371.63
2023-01-09T04:10:38.613Z,99374.53
2023-01-09T04:13:06.783Z,99375.38
2023-01-09T04:15:34.909Z,99379.41
2023-01-09T04:18:03.726Z,99380.94
2023-01-09T04:20:31.959Z,99378.56
2023-01-09T04:23:00.422Z,99385.41
2023-01-09T04:25:29.943Z,99386.59
2023-01-09T04:27:58.275Z,99379.28
2023-01-09T04:30:29.077Z,99371.19
2023-01-09T04:32:57.266Z,99371.41
2023-01-09T04:35:25.462Z,99359.91
2023-01-09T04:37:53.608Z,99348.84
2023-01-09T04:40:21.813Z,99353.56
2023-01-09T04:42:51.302Z,99355.28
2023-01-09T04:45:19.423Z,99354.59
2023-01-09T04:47:47.880Z,99352.94
2023-01-09T04:50:16.660Z,99356.28
2023-01-09T04:52:44.857Z,99355.00
2023-01-09T04:55:13.107Z,99343.47
2023-01-09T04:57:41.283Z,99344.13
2023-01-09T05:00:12.443Z,99340.56
2023-01-09T05:02:41.527Z,99337.66
2023-01-09T05:05:11.847Z,99339.81
2023-01-09T05:07:40.388Z,99334.09
2023-01-09T05:10:09.970Z,99332.97
2023-01-09T05:12:39.776Z,99325.06
2023-01-09T05:15:09.352Z,99330.75
2023-01-09T05:17:38.862Z,99329.56
2023-01-09T05:20:07.861Z,99326.78
2023-01-09T05:22:36.027Z,99322.66
2023-01-09T05:25:04.421Z,99317.56
2023-01-09T05:27:32.582Z,99323.00
2023-01-09T05:30:00.741Z,99318.91
2023-01-09T05:32:29.231Z,99326.19
2023-01-09T05:34:58.719Z,99319.00
2023-01-09T05:37:26.880Z,99324.88
2023-01-09T05:39:55.388Z,99315.31
2023-01-09T05:42:23.879Z,99316.16
2023-01-09T05:44:52.129Z,99320.78
2023-01-09T05:47:20.595Z,99318.16
2023-01-09T05:49:48.765Z,99318.34
2023-01-09T05:52:18.694Z,99319.09
2023-01-09T05:54:46.935Z,99317.59
2023-01-09T05:57:15.260Z,99325.63
2023-01-09T05:59:43.661Z,99315.41
2023-01-09T06:02:11.983Z,99310.06
2023-01-09T06:04:40.197Z,99314.00
2023-01-09T06:07:08.325Z,99312.13
2023-01-09T06:09:37.857Z,99320.94
2023-01-09T06:12:06.310Z,99319.97
2023-01-09T06:14:34.680Z,99316.06
2023-01-09T06:17:02.809Z,99316.16
2023-01-09T06:19:30.973Z,99323.13
2023-01-09T06:21:59.121Z,99324.81
2023-01-09T06:24:27.602Z,99313.16
2023-01-09T06:26:57.556Z,99322.44
2023-01-09T06:29:25.675Z,99325.56
2023-01-09T06:31:53.830Z,99317.94
2023-01-09T06:34:22.256Z,99329.09
2023-01-09T06:36:50.407Z,99318.31
2023-01-09T06:39:18.743Z,99317.28
2023-01-09T06:41:48.486Z,99315.03
2023-01-09T06:44:18.274Z,99316.81
2023-01-09T06:46:46.747Z,99320.94
2023-01-09T06:49:14.974Z,99322.81
2023-01-09T06:51:43.439Z,99321.97
2023-01-09T06:54:11.805Z,99320.78
2023-01-09T06:56:40.302Z,99323.00
2023-01-09T06:59:08.465Z,99325.72
2023-01-09T07:01:39.611Z,99326.31
2023-01-09T07:04:07.994Z,99324.69
2023-01-09T07:06:36.198Z,99319.81
2023-01-09T07:09:05.941Z,99317.56
2023-01-09T07:11:34.200Z,99328.25
2023-01-09T07:14:02.471Z,99325.25
2023-01-09T07:16:30.653Z,99330.22
2023-01-09T07:19:00.395Z,99336.91
2023-01-09T07:21:28.655Z,99337.88
2023-01-09T07:23:57.109Z,99336.53
2023-01-09T07:26:25.279Z,99342.91
2023-01-09T07:28:54.535Z,99340.97
2023-01-09T07:31:22.775Z,99350.97
2023-01-09T07:33:51.336Z,99352.69
2023-01-09T07:36:20.950Z,99352.31
2023-01-09T07:38:49.445Z,99362.00
2023-01-09T07:41:17.607Z,99350.16
2023-01-09T07:43:45.847Z,99364.78
2023-01-09T07:46:14.059Z,99358.88
2023-01-09T07:48:42.220Z,99366.84
2023-01-09T07:51:10.625Z,99375.69
2023-01-09T07:53:40.357Z,99372.03
2023-01-09T07:56:09.212Z,99371.47
2023-01-09T07:58:38.489Z,99360.38
2023-01-09T08:01:06.895Z,99369.69
2023-01-09T08:03:35.107Z,99368.25
2023-01-09T08:06:03.277Z,99367.53
2023-01-09T08:08:31.527Z,99380.56
2023-01-09T08:11:01.011Z,99379.84
2023-01-09T08:13:29.180Z,99376.75
2023-01-09T08:15:57.395Z,99380.75
2023-01-09T08:18:25.622Z,99392.31
2023-01-09T08:20:53.829Z,99409.59
2023-01-09T08:23:22.061Z,99414.59
2023-01-09T08:25:50.423Z,99410.72
2023-01-09T08:28:19.979Z,99421.72
2023-01-09T08:30:48.553Z,99417.31
2023-01-09T08:33:16.830Z,99415.81
2023-01-09T08:35:45.707Z,99420.41
2023-01-09T08:38:14.017Z,99424.63
2023-01-09T08:40:42.389Z,99412.03
2023-01-09T08:43:28.169Z,99416.03
2023-01-09T08:46:14.885Z,99417.44
2023-01-09T08:48:43.701Z,99416.97
2023-01-09T08:51:12.066Z,99421.66
2023-01-09T08:53:40.592Z,99422.41
2023-01-09T08:56:08.956Z,99424.88
2023-01-09T08:58:37.184Z,99428.44
2023-01-09T09:01:08.320Z,99425.16
2023-01-09T09:03:36.789Z,99427.69
2023-01-09T09:06:09.269Z,99428.34
2023-01-09T09:08:37.498Z,99428.16
2023-01-09T09:11:05.807Z,99437.66
2023-01-09T09:13:34.068Z,99434.75
2023-01-09T09:16:02.304Z,99436.72
2023-01-09T09:18:31.859Z,99441.59
2023-01-09T09:21:00.052Z,99433.34
2023-01-09T09:23:28.237Z,99440.06
2023-01-09T09:25:56.360Z,99432.59
2023-01-09T09:28:24.501Z,99449.78
2023-01-09T09:30:52.711Z,99438.97
2023-01-09T09:33:20.906Z,99441.13
2023-01-09T09:35:50.587Z,99443.56
2023-01-09T09:38:19.547Z,99443.47
2023-01-09T09:40:59.789Z,99427.09
2023-01-09T09:44:06.579Z,99431.81
2023-01-09T09:46:43.331Z,99442.53
2023-01-09T09:49:15.784Z,99433.69
2023-01-09T09:51:57.419Z,99427.97
2023-01-09T09:54:33.379Z,99432.53
2023-01-09T09:57:04.584Z,99435.75
2023-01-09T09:59:37.055Z,99435.38
2023-01-09T10:02:15.672Z,99437.63
2023-01-09T10:04:49.331Z,99424.84
2023-01-09T10:07:23.569Z,99425.50
2023-01-09T10:09:55.450Z,99431.03
2023-01-09T10:12:29.558Z,99434.97
2023-01-09T10:14:59.968Z,99431.03
2023-01-09T10:17:44.392Z,99439.31
2023-01-09T10:20:38.492Z,99430.81
2023-01-09T10:23:20.611Z,99432.03
2023-01-09T10:25:55.068Z,99437.41
2023-01-09T10:28:42.152Z,99427.09
2023-01-09T10:31:18.481Z,99429.59
2023-01-09T10:33:55.606Z,99431.94
2023-01-09T10:36:52.045Z,99435.41
2023-01-09T10:39:24.423Z,99440.22
2023-01-09T10:41:59.209Z,99432.88
2023-01-09T10:44:35.177Z,99437.88
2023-01-09T10:47:06.754Z,99433.63
2023-01-09T10:49:37.361Z,99442.09
2023-01-09T10:52:16.736Z,99437.84
2023-01-09T10:54:56.204Z,99441.19
2023-01-09T10:57:35.394Z,99439.09
2023-01-09T11:00:05.685Z,99446.41
2023-01-09T11:02:36.469Z,99442.03
2023-01-09T11:05:04.962Z,99448.03
2023-01-09T11:07:37.480Z,99450.31
2023-01-09T11:10:09.785Z,99449.44
2023-01-09T11:12:38.790Z,99454.13
2023-01-09T11:15:31.083Z,99459.72
2023-01-09T11:18:21.103Z,99453.16
2023-01-09T11:20:49.546Z,99464.59
2023-01-09T11:23:30.535Z,99458.88
2023-01-09T11:26:02.306Z,99451.72
2023-01-09T11:28:30.481Z,99451.28
2023-01-09T11:31:00.992Z,99461.63
2023-01-09T11:33:31.356Z,99461.22
2023-01-09T11:36:10.847Z,99455.34
2023-01-09T11:38:49.550Z,99473.94
2023-01-09T11:41:21.940Z,99472.47
2023-01-09T11:43:52.727Z,99469.50
2023-01-09T11:46:39.528Z,99467.75
2023-01-09T11:49:22.852Z,99478.53
2023-01-09T11:52:16.365Z,99475.72
2023-01-09T11:54:51.525Z,99466.00
2023-01-09T11:57:22.628Z,99469.00
2023-01-09T11:59:51.475Z,99470.91
2023-01-09T12:02:40.452Z,99471.53
2023-01-09T12:05:20.191Z,99465.03
2023-01-09T12:08:12.787Z,99464.38
2023-01-09T12:10:57.106Z,99468.81
2023-01-09T12:13:42.646Z,99470.50
2023-01-09T12:16:24.197Z,99466.50
2023-01-09T12:19:05.580Z,99468.19
2023-01-09T12:21:35.909Z,99460.53
2023-01-09T12:24:26.991Z,99464.91
2023-01-09T12:27:09.363Z,99469.66
2023-01-09T12:29:53.891Z,99472.81
2023-01-09T12:32:38.404Z,99477.25
2023-01-09T12:35:19.036Z,99471.09
2023-01-09T12:38:02.474Z,99483.75
2023-01-09T12:40:53.756Z,99477.00
2023-01-09T12:43:29.279Z,99480.19
2023-01-09T12:46:13.679Z,99489.69
2023-01-09T12:48:57.993Z,99486.13
2023-01-09T12:51:32.545Z,99477.91
2023-01-09T12:54:06.003Z,99471.97
2023-01-09T12:56:38.066Z,99459.66
2023-01-09T12:59:22.588Z,99444.13
2023-01-09T13:01:53.369Z,99455.09
2023-01-09T13:04:26.973Z,99458.28
2023-01-09T13:06:58.791Z,99439.16
2023-01-09T13:09:33.647Z,99443.69
2023-01-09T13:12:09.524Z,99443.78
2023-01-09T13:14:48.571Z,99439.06
2023-01-09T13:17:23.138Z,99436.06
2023-01-09T13:19:53.207Z,99428.59
2023-01-09T13:22:23.537Z,99430.06
2023-01-09T13:25:29.643Z,99415.88
2023-01-09T13:28:01.053Z,99409.03
2023-01-09T13:30:51.645Z,99413.88
2023-01-09T13:33:24.959Z,99416.00
2023-01-09T13:35:54.989Z,99418.56
2023-01-09T13:38:25.806Z,99409.59
2023-01-09T13:41:30.362Z,99408.50
2023-01-09T13:44:01.426Z,99402.22
2023-01-09T13:46:37.938Z,99415.81
2023-01-09T13:49:08.882Z,99409.38
2023-01-09T13:51:59.914Z,99408.44
2023-01-09T13:55:18.904Z,99418.69
2023-01-09T13:58:22.716Z,99421.75
2023-01-09T14:00:57.237Z,99426.91
2023-01-09T14:03:31.329Z,99434.63
2023-01-09T14:06:22.444Z,99449.53
2023-01-09T14:09:07.725Z,99449.41
2023-01-09T14:11:36.034Z,99457.31
2023-01-09T14:14:09.132Z,99466.03
2023-01-09T14:16:39.094Z,99470.25
2023-01-09T14:19:21.726Z,99486.09
2023-01-09T14:21:55.194Z,99484.50
2023-01-09T14:24:28.080Z,99493.94
2023-01-09T14:26:58.489Z,99505.44
2023-01-09T14:29:47.525Z,99502.91
2023-01-09T14:32:38.890Z,99513.63
2023-01-09T14:35:16.207Z,99503.97
2023-01-09T14:38:00.570Z,99517.19
2023-01-09T14:40:30.123Z,99519.16
2023-01-09T14:43:06.322Z,99527.22
2023-01-09T14:45:36.873Z,99544.63
2023-01-09T14:48:09.741Z,99537.69
2023-01-09T14:50:45.118Z,99548.03
2023-01-09T14:53:19.566Z,99561.50
2023-01-09T14:55:52.176Z,99565.78
2023-01-09T14:58:25.549Z,99572.13
2023-01-09T15:00:58.351Z,99570.22
2023-01-09T15:03:30.640Z,99566.81
2023-01-09T15:05:59.001Z,99573.97
2023-01-09T15:08:29.899Z,99585.56
2023-01-09T15:11:00.154Z,99589.78
2023-01-09T15:13:32.809Z,99594.84
2023-01-09T15:16:02.392Z,99603.03
2023-01-09T15:18:33.315Z,99610.28
2023-01-09T15:21:03.821Z,99601.81
2023-01-09T15:23:33.440Z,99602.06
2023-01-09T15:26:14.682Z,99605.59
2023-01-09T15:28:44.602Z,99618.69
2023-01-09T15:31:16.502Z,99610.59
2023-01-09T15:33:47.124Z,99620.19
2023-01-09T15:36:19.262Z,99620.47
2023-01-09T15:38:50.767Z,99631.94
2023-01-09T15:41:38.815Z,99634.28
2023-01-09T15:44:13.930Z,99643.81
2023-01-09T15:46:43.411Z,99636.81
2023-01-09T15:49:13.189Z,99654.44
2023-01-09T15:51:42.978Z,99659.06
2023-01-09T15:54:15.610Z,99662.25
2023-01-09T15:56:46.239Z,99658.53
2023-01-09T15:59:27.100Z,99655.56
2023-01-09T16:02:15.740Z,99656.16
2023-01-09T16:04:44.011Z,99654.28
2023-01-09T16:07:16.304Z,99657.94
2023-01-09T16:09:48.321Z,99652.56
2023-01-09T16:12:20.843Z,99657.06
2023-01-09T16:14:52.549Z,99651.81
2023-01-09T16:17:26.476Z,99658.88
2023-01-09T16:19:57.776Z,99655.34
2023-01-09T16:22:28.042Z,99662.59
2023-01-09T16:24:58.596Z,99666.41
2023-01-09T16:27:28.756Z,99674.22
2023-01-09T16:29:59.453Z,99675.91
2023-01-09T16:32:30.528Z,99680.75
2023-01-09T16:35:05.534Z,99680.59
2023-01-09T16:37:36.007Z,99677.97
2023-01-09T16:40:29.826Z,99687.38
2023-01-09T16:43:03.476Z,99682.13
2023-01-09T16:45:34.381Z,99683.13
2023-01-09T16:48:03.545Z,99684.47
2023-01-09T16:50:31.693Z,99683.63
2023-01-09T16:53:03.033Z,99682.94
2023-01-09T16:55:32.565Z,99679.72
2023-01-09T16:58:00.704Z,99687.63
2023-01-09T17:00:29.057Z,99686.34
2023-01-09T17:02:58.269Z,99682.63
2023-01-09T17:05:26.454Z,99693.75
2023-01-09T17:07:55.848Z,99692.16
2023-01-09T17:10:25.192Z,99697.53
2023-01-09T17:12:55.619Z,99701.78
2023-01-09T17:15:23.766Z,99700.63
2023-01-09T17:17:51.861Z,99705.72
2023-01-09T17:20:20.672Z,99696.06
2023-01-09T17:22:48.788Z,99703.25
2023-01-09T17:25:35.099Z,99708.25
2023-01-09T17:28:23.001Z,99704.88
2023-01-09T17:30:51.167Z,99713.00
2023-01-09T17:33:20.371Z,99706.13
2023-01-09T17:35:48.995Z,99700.75
2023-01-09T17:38:17.612Z,99702.66
2023-01-09T17:40:46.235Z,99692.47
2023-01-09T17:43:16.201Z,99711.00
2023-01-09T17:45:44.462Z,99717.28
2023-01-09T17:48:17.795Z,99717.25
2023-01-09T17:50:46.680Z,99715.09
2023-01-09T17:53:15.814Z,99719.59
2023-01-09T17:55:45.133Z,99735.53
2023-01-09T17:58:26.694Z,99721.03
2023-01-09T18:00:54.945Z,99722.56
2023-01-09T18:03:25.889Z,99720.38
2023-01-09T18:05:54.216Z,99725.34
2023-01-09T18:08:22.395Z,99731.09
2023-01-09T18:10:51.074Z,99721.13
2023-01-09T18:13:20.542Z,99726.88
2023-01-09T18:15:49.107Z,99742.00
2023-01-09T18:18:17.346Z,99749.66
2023-01-09T18:20:46.253Z,99750.66
2023-01-09T18:23:15.239Z,99757.50
2023-01-09T18:25:44.308Z,99757.63
2023-01-09T18:28:15.167Z,99765.19
2023-01-09T18:30:45.657Z,99762.63
2023-01-09T18:33:14.704Z,99776.41
2023-01-09T18:35:43.059Z,99771.22
2023-01-09T18:38:12.401Z,99781.28
2023-01-09T18:40:41.759Z,99791.59
2023-01-09T18:43:11.506Z,99794.06
2023-01-09T18:45:39.793Z,99798.00
2023-01-09T18:48:10.944Z,99805.59
2023-01-09T18:50:39.130Z,99806.66
2023-01-09T18:53:07.479Z,99812.75
2023-01-09T18:55:37.539Z,99800.94
2023-01-09T18:58:05.895Z,99810.91
2023-01-09T19:00:34.204Z,99812.75
2023-01-09T19:03:02.370Z,99807.75
2023-01-09T19:05:33.075Z,99815.69
2023-01-09T19:08:01.216Z,99810.75
2023-01-09T19:10:29.371Z,99806.56
2023-01-09T19:12:57.772Z,99818.47
2023-01-09T19:15:25.925Z,99823.09
2023-01-09T19:17:54.349Z,99824.47
2023-01-09T19:20:23.020Z,99833.47
2023-01-09T19:22:52.759Z,99837.00
2023-01-09T19:25:21.394Z,99839.41
2023-01-09T19:27:49.547Z,99840.16
2023-01-09T19:30:18.453Z,99844.41
2023-01-09T19:32:46.608Z,99845.31
2023-01-09T19:35:14.840Z,99844.25
2023-01-09T19:37:42.977Z,99844.09
2023-01-09T19:40:14.047Z,99841.47
2023-01-09T19:42:42.195Z,99838.41
2023-01-09T19:45:11.130Z,99833.81
2023-01-09T19:47:39.350Z,99842.66
2023-01-09T19:50:08.350Z,99850.03
2023-01-09T19:52:37.464Z,99844.78
2023-01-09T19:55:06.413Z,99852.44
2023-01-09T19:57:35.927Z,99863.59
2023-01-09T20:00:04.655Z,99859.91
2023-01-09T20:02:40.608Z,99860.41
2023-01-09T20:05:10.168Z,99872.19
2023-01-09T20:07:38.281Z,99864.53
2023-01-09T20:10:07.659Z,99870.25
2023-01-09T20:12:37.428Z,99858.56
2023-01-09T20:15:09.909Z,99872.16
2023-01-09T20:17:38.024Z,99871.66
2023-01-09T20:20:07.413Z,99874.88
2023-01-09T20:22:35.704Z,99877.41
2023-01-09T20:25:03.839Z,99873.81
2023-01-09T20:27:32.026Z,99882.53
2023-01-09T20:30:01.536Z,99886.19
2023-01-09T20:32:29.977Z,99891.19
2023-01-09T20:34:58.119Z,99874.03
2023-01-09T20:37:26.264Z,99887.34
2023-01-09T20:39:54.455Z,99883.94
2023-01-09T20:42:22.553Z,99893.59
2023-01-09T20:44:50.674Z,99893.56
2023-01-09T20:47:22.084Z,99896.06
2023-01-09T20:49:50.305Z,99895.97
2023-01-09T20:52:18.493Z,99908.88
2023-01-09T20:54:46.826Z,99911.84
2023-01-09T20:57:14.921Z,99918.41
2023-01-09T20:59:43.071Z,99909.16
2023-01-09T21:02:14.677Z,99917.16
2023-01-09T21:04:44.226Z,99915.44
2023-01-09T21:07:12.408Z,99918.69
2023-01-09T21:09:40.752Z,99932.34
2023-01-09T21:12:22.899Z,99930.28
2023-01-09T21:14:51.003Z,99935.00
2023-01-09T21:17:19.473Z,99940.22
2023-01-09T21:19:49.764Z,99940.00
2023-01-09T21:22:17.933Z,99939.09
2023-01-09T21:24:49.820Z,99942.31
2023-01-09T21:27:17.992Z,99952.28
2023-01-09T21:29:46.603Z,99949.88
2023-01-09T21:32:14.743Z,99957.31
2023-01-09T21:34:42.960Z,99948.78
2023-01-09T21:37:12.539Z,99967.66
2023-01-09T21:39:40.725Z,99975.84
2023-01-09T21:42:27.476Z,99978.00
2023-01-09T21:45:13.142Z,99981.22
2023-01-09T21:47:41.416Z,99976.22
2023-01-09T21:50:10.542Z,99987.53
2023-01-09T21:52:39.972Z,99978.50
2023-01-09T21:55:09.619Z,99976.50
2023-01-09T21:57:37.813Z,99985.59
2023-01-09T22:00:07.943Z,99994.97
2023-01-09T22:02:41.083Z,99999.09
2023-01-09T22:05:09.505Z,100003.34
2023-01-09T22:07:37.759Z,100010.19
2023-01-09T22:10:08.704Z,100020.63
2023-01-09T22:12:36.845Z,100021.63
2023-01-09T22:15:05.867Z,100022.94
2023-01-09T22:17:34.319Z,100025.47
2023-01-09T22:20:02.482Z,100026.91
2023-01-09T22:22:30.627Z,100030.09
2023-01-09T22:24:59.687Z,100029.53
2023-01-09T22:27:29.210Z,100043.66
2023-01-09T22:29:57.358Z,100053.94
2023-01-09T22:32:25.551Z,100054.22
2023-01-09T22:34:53.702Z,100050.81
2023-01-09T22:37:21.895Z,100055.31
2023-01-09T22:39:50.044Z,100059.47
2023-01-09T22:42:18.228Z,100062.09
2023-01-09T22:44:47.737Z,100068.78
2023-01-09T22:47:15.936Z,100071.63
2023-01-09T22:49:52.691Z,100079.06
2023-01-09T22:52:21.988Z,100085.72
2023-01-09T22:54:50.184Z,100092.97
2023-01-09T22:57:18.345Z,100096.63
2023-01-09T22:59:47.799Z,100107.25
2023-01-09T23:02:16.048Z,100126.75
2023-01-09T23:04:44.276Z,100131.94
2023-01-09T23:07:12.483Z,100133.63
2023-01-09T23:09:40.616Z,100152.78
2023-01-09T23:12:08.840Z,100156.94
2023-01-09T23:14:39.299Z,100145.84
2023-01-09T23:17:10.678Z,100155.34
2023-01-09T23:19:40.611Z,100154.41
2023-01-09T23:22:08.954Z,100157.72
2023-01-09T23:24:37.131Z,100160.06
2023-01-09T23:27:05.413Z,100162.69
2023-01-09T23:29:34.036Z,100161.50
2023-01-09T23:32:07.207Z,100159.31
2023-01-09T23:34:36.750Z,100167.84
2023-01-09T23:37:08.954Z,100155.22
2023-01-09T23:39:37.268Z,100154.72
2023-01-09T23:42:23.349Z,100157.78
2023-01-09T23:44:51.552Z,100158.22
2023-01-09T23:47:19.722Z,100145.09
2023-01-09T23:49:49.200Z,100138.75
2023-01-09T23:52:17.427Z,100140.53
2023-01-09T23:54:45.590Z,100147.94
2023-01-09T23:57:13.842Z,100145.09
2023-01-09T23:59:41.998Z,100150.78
